Time;durP1;ratioP1;P1;durP2;ratioP2;P2;SDS_P1;SDS_P2;PMS_P1;PMS_P2;Temp;Humidity;BMP_temperature;BMP_pressure;BME280_temperature;BME280_humidity;BME280_pressure;Samples;Min_cycle;Max_cycle;Signal;HPM_P1;HPM_P2
2023/11/23 00:00:40;;;;;;;6.87;3.17;;;;;;;-3.71;67.75;101060.31;1624169;87;21057;-69
2023/11/23 00:03:12;;;;;;;6.83;3.10;;;;;;;-3.73;67.53;101056.87;1624726;88;21528;-69
2023/11/23 00:05:41;;;;;;;7.97;3.15;;;;;;;-3.74;67.18;101056.48;1623852;88;21084;-69
2023/11/23 00:08:11;;;;;;;8.10;3.25;;;;;;;-3.78;67.00;101056.28;1624022;88;21077;-69
2023/11/23 00:10:41;;;;;;;9.40;3.80;;;;;;;-3.78;66.89;101058.95;1624278;87;21100;-71
2023/11/23 00:13:11;;;;;;;14.40;4.90;;;;;;;-3.80;66.59;101050.15;1623769;88;21040;-68
2023/11/23 00:15:40;;;;;;;9.30;3.67;;;;;;;-3.84;66.82;101053.96;1623937;88;21129;-69
2023/11/23 00:18:09;;;;;;;8.20;3.70;;;;;;;-3.84;67.09;101053.96;1623956;87;21103;-69
2023/11/23 00:20:41;;;;;;;7.83;3.52;;;;;;;-3.84;67.12;101063.33;1623943;88;21085;-69
2023/11/23 00:23:10;;;;;;;8.00;3.17;;;;;;;-3.86;67.04;101051.85;1624116;87;21076;-68
2023/11/23 00:25:39;;;;;;;6.35;3.10;;;;;;;-3.86;66.73;101059.88;1623805;87;21555;-68
2023/11/23 00:28:09;;;;;;;6.45;3.30;;;;;;;-3.91;66.75;101061.45;1623990;87;21033;-68
2023/11/23 00:30:47;;;;;;;9.35;3.70;;;;;;;-3.92;67.05;101058.87;1624028;88;21065;-69
2023/11/23 00:33:16;;;;;;;8.45;4.33;;;;;;;-3.94;67.21;101066.12;1637735;87;21492;-69
2023/11/23 00:35:45;;;;;;;11.22;4.65;;;;;;;-3.93;67.32;101062.02;1627024;85;21127;-68
2023/11/23 00:38:18;;;;;;;7.42;3.10;;;;;;;-3.93;67.36;101053.13;1624659;86;21488;-68
2023/11/23 00:40:45;;;;;;;5.47;2.85;;;;;;;-3.92;67.50;101051.70;1630640;88;21089;-68
2023/11/23 00:43:14;;;;;;;6.45;2.65;;;;;;;-3.90;67.45;101048.48;1630486;88;21627;-67
2023/11/23 00:45:44;;;;;;;8.68;3.22;;;;;;;-3.87;67.16;101037.60;1630508;88;21100;-69
2023/11/23 00:48:13;;;;;;;6.72;2.77;;;;;;;-3.88;66.89;101028.33;1630486;86;21464;-69
2023/11/23 00:50:43;;;;;;;6.10;2.58;;;;;;;-3.85;66.93;101034.36;1630701;88;21116;-68
2023/11/23 00:53:16;;;;;;;4.70;2.45;;;;;;;-3.85;66.35;101027.67;1629549;86;21097;-68
2023/11/23 00:55:46;;;;;;;5.28;2.52;;;;;;;-3.88;65.95;101028.33;1630717;88;21532;-68
2023/11/23 00:58:15;;;;;;;7.92;2.90;;;;;;;-3.89;65.68;101023.92;1630571;88;21136;-68
2023/11/23 01:00:43;;;;;;;7.70;3.52;;;;;;;-3.88;65.70;101020.30;1630620;88;21108;-69
2023/11/23 01:03:13;;;;;;;8.58;3.72;;;;;;;-3.87;65.63;101013.98;1630713;86;21040;-69
2023/11/23 01:05:43;;;;;;;5.67;3.05;;;;;;;-3.87;65.37;101016.66;1630693;88;21103;-68
2023/11/23 01:08:16;;;;;;;11.70;4.55;;;;;;;-3.89;65.23;101008.72;1626350;87;21093;-68
2023/11/23 01:10:44;;;;;;;9.68;4.00;;;;;;;-3.94;64.66;101005.91;1630637;87;21078;-69
2023/11/23 01:13:15;;;;;;;10.28;4.12;;;;;;;-3.92;64.65;100999.98;1630525;86;21131;-68
2023/11/23 01:15:45;;;;;;;10.68;3.83;;;;;;;-3.93;64.53;101001.80;1630564;88;21105;-68
2023/11/23 01:18:14;;;;;;;3.98;2.47;;;;;;;-3.98;63.68;101005.70;1630691;87;21080;-69
2023/11/23 01:20:44;;;;;;;5.58;2.60;;;;;;;-4.09;63.04;101002.31;1630670;87;21532;-67
2023/11/23 01:23:13;;;;;;;5.30;2.80;;;;;;;-4.16;62.97;100997.80;1630622;86;21492;-67
2023/11/23 01:25:43;;;;;;;8.63;3.40;;;;;;;-4.21;62.91;100981.15;1630641;87;21076;-68
2023/11/23 01:28:12;;;;;;;6.87;2.90;;;;;;;-4.24;63.02;100975.12;1630623;87;21155;-66
2023/11/23 01:30:42;;;;;;;6.53;2.72;;;;;;;-4.27;63.15;100972.62;1630714;88;21128;-69
2023/11/23 01:33:12;;;;;;;6.50;2.75;;;;;;;-4.31;63.20;100965.25;1630700;88;21198;-68
2023/11/23 01:35:41;;;;;;;9.40;4.17;;;;;;;-4.32;63.41;100964.86;1630659;86;21103;-69
2023/11/23 01:38:09;;;;;;;13.05;5.37;;;;;;;-4.33;63.38;100964.95;1632593;87;21069;-68
2023/11/23 01:40:38;;;;;;;13.70;5.97;;;;;;;-4.39;63.07;100962.16;1633098;88;21080;-68
2023/11/23 01:43:12;;;;;;;9.58;4.08;;;;;;;-4.42;63.33;100965.02;1632928;88;21092;-69
2023/11/23 01:46:01;;;;;;;17.80;5.10;;;;;;;-4.38;63.67;100973.24;1629185;86;21096;-68
2023/11/23 01:48:30;;;;;;;16.62;6.47;;;;;;;-4.35;63.82;100971.73;1633052;88;21057;-69
2023/11/23 01:51:00;;;;;;;17.30;5.90;;;;;;;-4.32;63.89;100972.89;1632948;88;21076;-67
2023/11/23 01:53:34;;;;;;;12.68;4.90;;;;;;;-4.30;63.91;100967.45;1633151;87;21582;-68
2023/11/23 01:56:04;;;;;;;13.72;5.67;;;;;;;-4.32;63.72;100966.20;1633182;88;21115;-68
2023/11/23 01:58:32;;;;;;;13.58;6.10;;;;;;;-4.36;63.88;100960.64;1633234;88;21516;-68
2023/11/23 02:01:02;;;;;;;12.58;5.15;;;;;;;-4.38;64.15;100949.17;1633186;88;21092;-70
2023/11/23 02:03:31;;;;;;;6.75;3.55;;;;;;;-4.40;64.26;100955.09;1633095;88;21170;-68
2023/11/23 02:06:00;;;;;;;6.95;3.52;;;;;;;-4.43;64.12;100948.58;1633373;86;21089;-66
2023/11/23 02:08:29;;;;;;;7.35;3.50;;;;;;;-4.45;64.15;100952.29;1633160;88;21080;-67
2023/11/23 02:10:58;;;;;;;9.70;4.08;;;;;;;-4.50;64.29;100948.55;1633005;88;21132;-68
2023/11/23 02:13:27;;;;;;;11.85;4.45;;;;;;;-4.51;64.52;100945.48;1633086;88;21093;-68
2023/11/23 02:15:55;;;;;;;8.43;3.45;;;;;;;-4.49;64.68;100938.23;1633207;86;21045;-68
2023/11/23 02:18:24;;;;;;;7.67;3.85;;;;;;;-4.50;64.57;100937.85;1633074;88;21536;-69
2023/11/23 02:20:52;;;;;;;6.15;3.12;;;;;;;-4.49;64.59;100942.25;1633095;88;21109;-68
2023/11/23 02:23:20;;;;;;;7.50;3.52;;;;;;;-4.50;64.42;100935.17;1633114;86;21146;-68
2023/11/23 02:25:49;;;;;;;6.58;3.30;;;;;;;-4.50;64.53;100936.52;1633215;87;21516;-70
2023/11/23 02:28:18;;;;;;;11.15;3.70;;;;;;;-4.49;64.52;100931.55;1633234;88;21056;-69
2023/11/23 02:30:47;;;;;;;8.53;3.70;;;;;;;-4.45;64.52;100928.22;1633111;88;21100;-68
2023/11/23 02:33:15;;;;;;;6.78;3.22;;;;;;;-4.42;64.67;100926.70;1633247;88;21104;-70
2023/11/23 02:35:44;;;;;;;8.33;3.52;;;;;;;-4.38;64.85;100918.89;1633460;86;21049;-68
2023/11/23 02:38:12;;;;;;;6.92;3.33;;;;;;;-4.38;64.79;100923.77;1637843;87;21088;-69
2023/11/23 02:40:42;;;;;;;7.65;3.20;;;;;;;-4.36;64.87;100928.55;1637890;86;21064;-69
2023/11/23 02:43:11;;;;;;;9.90;3.80;;;;;;;-4.33;64.89;100914.13;1637825;87;21151;-67
2023/11/23 02:45:41;;;;;;;7.15;3.60;;;;;;;-4.33;64.74;100914.99;1639109;87;21068;-68
2023/11/23 02:48:10;;;;;;;7.72;3.55;;;;;;;-4.32;64.69;100914.52;1640035;86;21087;-68
2023/11/23 02:50:38;;;;;;;9.10;3.72;;;;;;;-4.31;64.79;100914.90;1639941;87;21095;-67
2023/11/23 02:53:16;;;;;;;16.82;4.62;;;;;;;-4.28;64.71;100912.91;1639943;87;21511;-67
2023/11/23 02:55:37;;;;;;;12.98;4.22;;;;;;;-4.30;64.66;100915.28;1641105;86;21448;-68
2023/11/23 02:58:06;;;;;;;12.50;4.40;;;;;;;-4.33;64.61;100917.66;1640025;87;21080;-69
2023/11/23 03:00:34;;;;;;;12.03;3.55;;;;;;;-4.31;64.83;100910.41;1639983;86;21590;-69
2023/11/23 03:03:04;;;;;;;12.70;4.33;;;;;;;-4.30;64.94;100906.78;1640137;87;21025;-68
2023/11/23 03:05:33;;;;;;;12.93;5.53;;;;;;;-4.24;64.94;100913.11;1640035;87;21123;-69
2023/11/23 03:08:03;;;;;;;11.30;4.80;;;;;;;-4.21;64.75;100910.25;1660728;86;21036;-69
2023/11/23 03:10:34;;;;;;;13.20;5.10;;;;;;;-4.21;64.68;100908.05;1640877;86;21079;-68
2023/11/23 03:13:02;;;;;;;10.63;4.90;;;;;;;-4.22;64.75;100907.19;1639967;87;21063;-67
2023/11/23 03:15:31;;;;;;;16.77;6.20;;;;;;;-4.19;64.89;100899.45;1640023;86;21071;-68
2023/11/23 03:18:00;;;;;;;17.32;5.62;;;;;;;-4.19;64.97;100894.97;1640309;87;21071;-68
2023/11/23 03:20:29;;;;;;;22.30;6.12;;;;;;;-4.15;65.10;100892.49;1640272;86;21102;-67
2023/11/23 03:22:59;;;;;;;22.45;6.95;;;;;;;-4.12;65.11;100883.42;1639982;87;21998;-72
2023/11/23 03:25:27;;;;;;;15.58;5.40;;;;;;;-4.07;65.30;100880.47;1639997;86;21072;-68
2023/11/23 03:27:57;;;;;;;9.75;4.47;;;;;;;-4.05;65.25;100885.25;1640183;87;21064;-68
2023/11/23 03:30:26;;;;;;;13.03;5.20;;;;;;;-4.05;65.14;100887.92;1640007;86;21064;-68
2023/11/23 03:32:54;;;;;;;14.53;5.00;;;;;;;-4.06;65.19;100875.50;1639939;87;21087;-68
2023/11/23 03:35:23;;;;;;;13.80;4.67;;;;;;;-4.06;65.03;100874.16;1640139;87;21008;-67
2023/11/23 03:37:52;;;;;;;16.55;4.90;;;;;;;-4.09;64.71;100864.51;1640004;84;21151;-68
2023/11/23 03:40:20;;;;;;;7.17;3.60;;;;;;;-4.14;64.72;100853.22;1639991;86;21512;-67
2023/11/23 03:42:49;;;;;;;8.70;3.67;;;;;;;-4.11;64.86;100852.17;1639941;87;21056;-68
2023/11/23 03:45:18;;;;;;;7.28;3.80;;;;;;;-4.12;64.86;100840.61;1640129;86;21132;-68
2023/11/23 03:47:47;;;;;;;9.60;4.67;;;;;;;-4.12;64.81;100828.57;1640139;87;21112;-69
2023/11/23 03:50:16;;;;;;;11.38;4.10;;;;;;;-4.10;64.96;100816.44;1640183;87;21072;-68
2023/11/23 03:52:45;;;;;;;7.58;3.50;;;;;;;-4.06;65.17;100808.60;1640271;87;21085;-68
2023/11/23 03:55:13;;;;;;;10.32;3.70;;;;;;;-4.00;65.34;100810.90;1639894;86;21080;-68
2023/11/23 03:57:43;;;;;;;7.12;3.40;;;;;;;-3.99;65.11;100817.49;1639989;86;21573;-67
2023/11/23 04:00:14;;;;;;;9.75;3.70;;;;;;;-3.98;64.93;100804.97;1640104;87;21048;-68
2023/11/23 04:02:43;;;;;;;16.65;4.22;;;;;;;-3.98;64.93;100802.30;1639896;87;21115;-68
2023/11/23 04:05:20;;;;;;;8.63;3.45;;;;;;;-3.97;64.94;100798.66;1639954;86;21084;-69
2023/11/23 04:07:49;;;;;;;10.80;6.00;;;;;;;-3.97;65.04;100784.80;1640069;87;21132;-68
2023/11/23 04:10:18;;;;;;;13.85;5.45;;;;;;;-3.99;64.86;100778.69;1640098;86;21131;-68
2023/11/23 04:12:47;;;;;;;9.80;4.70;;;;;;;-3.96;64.98;100785.19;1639945;87;21539;-68
2023/11/23 04:15:17;;;;;;;5.58;3.12;;;;;;;-3.93;64.92;100781.46;1640292;86;21417;-70
2023/11/23 04:17:46;;;;;;;7.45;3.50;;;;;;;-3.92;65.04;100763.97;1639918;87;21092;-69
2023/11/23 04:20:15;;;;;;;8.85;3.50;;;;;;;-3.91;65.27;100762.15;1640081;87;21491;-67
2023/11/23 04:22:44;;;;;;;6.80;3.30;;;;;;;-3.91;65.36;100759.47;1639968;87;21107;-68
2023/11/23 04:25:14;;;;;;;6.55;3.58;;;;;;;-3.94;65.55;100763.20;1639998;87;21032;-69
2023/11/23 04:27:43;;;;;;;8.55;3.50;;;;;;;-3.95;65.45;100776.20;1640137;87;21464;-69
2023/11/23 04:30:13;;;;;;;7.87;3.20;;;;;;;-3.96;65.64;100770.95;1639909;87;21157;-67
2023/11/23 04:32:41;;;;;;;6.10;3.05;;;;;;;-3.98;65.81;100768.36;1640127;87;21099;-69
2023/11/23 04:35:11;;;;;;;6.80;3.30;;;;;;;-3.94;65.99;100767.70;1639971;86;21028;-68
2023/11/23 04:37:40;;;;;;;11.00;3.52;;;;;;;-3.94;65.81;100756.98;1639930;86;21075;-68
2023/11/23 04:40:12;;;;;;;12.88;3.62;;;;;;;-3.96;65.89;100756.23;1640161;87;21064;-68
2023/11/23 04:42:43;;;;;;;10.65;3.60;;;;;;;-3.95;66.16;100755.27;1639997;86;21123;-70
2023/11/23 04:45:12;;;;;;;9.63;4.35;;;;;;;-3.92;66.30;100758.61;1640173;87;21140;-68
2023/11/23 04:47:40;;;;;;;7.17;3.80;;;;;;;-3.88;66.45;100762.84;1640011;86;21524;-68
2023/11/23 04:50:09;;;;;;;18.70;6.80;;;;;;;-3.86;66.54;100750.70;1639903;86;21558;-70
2023/11/23 04:52:38;;;;;;;16.62;4.60;;;;;;;-3.85;66.89;100772.02;1640147;87;21052;-68
2023/11/23 04:55:07;;;;;;;10.98;4.30;;;;;;;-3.86;66.99;100765.42;1639951;87;21064;-68
2023/11/23 04:57:37;;;;;;;7.05;3.58;;;;;;;-3.82;67.14;100754.91;1619836;87;21496;-69
2023/11/23 05:00:10;;;;;;;9.78;3.72;;;;;;;-3.82;67.29;100746.88;1639909;87;21060;-71
2023/11/23 05:02:42;;;;;;;9.70;3.87;;;;;;;-3.80;67.53;100743.62;1639931;87;21151;-70
2023/11/23 05:05:13;;;;;;;11.40;4.78;;;;;;;-3.79;67.65;100752.03;1640118;87;21096;-68
2023/11/23 05:07:42;;;;;;;9.03;4.53;;;;;;;-3.78;67.68;100741.70;1640172;87;21064;-70
2023/11/23 05:10:11;;;;;;;13.88;4.70;;;;;;;-3.80;67.82;100732.91;1641360;86;21162;-69
2023/11/23 05:12:40;;;;;;;8.28;4.37;;;;;;;-3.80;68.01;100719.53;1640028;87;21083;-69
2023/11/23 05:15:09;;;;;;;12.00;4.40;;;;;;;-3.80;68.28;100715.52;1640043;87;21032;-69
2023/11/23 05:17:38;;;;;;;10.20;4.30;;;;;;;-3.78;68.60;100710.06;1640014;87;21488;-69
2023/11/23 05:20:08;;;;;;;7.12;3.40;;;;;;;-3.75;68.79;100706.70;1620052;87;21080;-67
2023/11/23 05:22:39;;;;;;;9.85;4.20;;;;;;;-3.76;68.94;100697.44;1639964;86;21092;-69
2023/11/23 05:25:09;;;;;;;11.70;4.92;;;;;;;-3.79;69.12;100693.14;1640058;87;21084;-68
2023/11/23 05:27:38;;;;;;;7.97;4.05;;;;;;;-3.79;69.44;100690.46;1639981;87;21500;-68
2023/11/23 05:30:07;;;;;;;9.95;4.35;;;;;;;-3.75;69.80;100684.43;1639871;87;21076;-69
2023/11/23 05:32:36;;;;;;;9.68;4.35;;;;;;;-3.73;70.02;100680.70;1640109;87;21091;-68
2023/11/23 05:35:08;;;;;;;10.05;4.00;;;;;;;-3.70;70.17;100667.11;1641346;87;21135;-69
2023/11/23 05:37:37;;;;;;;10.63;4.03;;;;;;;-3.67;70.41;100665.56;1639847;85;21560;-69
2023/11/23 05:40:11;;;;;;;9.28;4.33;;;;;;;-3.65;70.44;100657.44;1640047;86;21084;-69
2023/11/23 05:42:40;;;;;;;12.45;4.62;;;;;;;-3.63;70.48;100658.19;1640137;87;21028;-70
2023/11/23 05:45:10;;;;;;;13.00;4.70;;;;;;;-3.61;70.44;100661.14;1641790;86;21099;-69
2023/11/23 05:47:39;;;;;;;13.30;4.83;;;;;;;-3.60;70.59;100660.66;1640004;87;21057;-68
2023/11/23 05:50:09;;;;;;;20.45;5.95;;;;;;;-3.59;70.56;100649.00;1640071;87;21072;-69
2023/11/23 05:52:39;;;;;;;10.82;4.50;;;;;;;-3.59;70.57;100647.17;1639951;86;21112;-70
2023/11/23 05:55:10;;;;;;;12.53;6.08;;;;;;;-3.57;70.65;100650.61;1639993;87;21080;-69
2023/11/23 05:57:38;;;;;;;17.92;6.00;;;;;;;-3.56;70.70;100650.98;1640146;87;21092;-69
2023/11/23 06:00:09;;;;;;;17.20;5.25;;;;;;;-3.55;70.78;100655.38;1640031;87;21147;-69
2023/11/23 06:02:38;;;;;;;10.95;5.53;;;;;;;-3.54;70.88;100647.73;1640148;86;21526;-69
2023/11/23 06:05:08;;;;;;;13.72;4.90;;;;;;;-3.52;70.82;100639.11;1620252;86;21580;-70
2023/11/23 06:07:37;;;;;;;17.87;4.92;;;;;;;-3.55;70.75;100631.28;1640157;87;21048;-69
2023/11/23 06:10:07;;;;;;;12.45;4.10;;;;;;;-3.55;70.90;100630.42;1640195;86;21044;-68
2023/11/23 06:12:36;;;;;;;10.05;4.03;;;;;;;-3.56;70.95;100622.88;1640165;87;21080;-70
2023/11/23 06:15:08;;;;;;;14.03;5.40;;;;;;;-3.57;70.95;100618.48;1639924;87;21540;-70
2023/11/23 06:17:36;;;;;;;12.03;5.22;;;;;;;-3.56;71.02;100614.84;1640047;86;21136;-70
2023/11/23 06:20:08;;;;;;;11.48;5.25;;;;;;;-3.56;71.06;100602.78;1641404;87;21122;-68
2023/11/23 06:22:37;;;;;;;8.33;4.35;;;;;;;-3.54;71.21;100594.65;1639925;86;21096;-68
2023/11/23 06:25:07;;;;;;;14.63;5.37;;;;;;;-3.53;71.23;100586.52;1640099;87;21120;-69
2023/11/23 06:27:36;;;;;;;10.75;4.40;;;;;;;-3.52;71.22;100576.17;1640069;87;21091;-69
2023/11/23 06:30:05;;;;;;;15.78;6.42;;;;;;;-3.48;71.25;100574.62;1641376;87;21079;-69
2023/11/23 06:32:34;;;;;;;11.25;4.92;;;;;;;-3.46;71.19;100572.70;1640124;87;21212;-69
2023/11/23 06:35:04;;;;;;;11.00;4.42;;;;;;;-3.46;71.21;100571.37;1640149;87;21116;-69
2023/11/23 06:37:33;;;;;;;17.42;5.37;;;;;;;-3.43;71.24;100584.55;1639995;86;21060;-69
2023/11/23 06:40:02;;;;;;;11.80;4.72;;;;;;;-3.46;71.23;100574.91;1640328;87;21104;-68
2023/11/23 06:42:32;;;;;;;18.05;5.28;;;;;;;-3.44;71.36;100589.53;1639981;87;21480;-70
2023/11/23 06:45:03;;;;;;;9.90;4.25;;;;;;;-3.43;71.31;100584.55;1639902;86;21056;-69
2023/11/23 06:47:33;;;;;;;12.58;4.95;;;;;;;-3.42;71.09;100576.89;1640039;87;21139;-69
2023/11/23 06:50:02;;;;;;;12.28;4.67;;;;;;;-3.44;71.08;100578.81;1639967;86;21559;-69
2023/11/23 06:52:31;;;;;;;9.83;4.05;;;;;;;-3.43;71.12;100584.07;1639906;86;21176;-68
2023/11/23 06:55:01;;;;;;;13.13;5.20;;;;;;;-3.43;71.14;100576.03;1640104;87;21073;-70
2023/11/23 06:57:30;;;;;;;18.73;9.15;;;;;;;-3.39;71.30;100584.72;1640273;87;21128;-70
2023/11/23 07:00:10;;;;;;;12.33;5.47;;;;;;;-3.40;71.25;100577.16;1640069;87;21084;-70
2023/11/23 07:02:31;;;;;;;18.40;5.85;;;;;;;-3.37;71.32;100562.70;1641397;86;21354;-69
2023/11/23 07:05:03;;;;;;;16.45;6.12;;;;;;;-3.35;71.40;100554.08;1639956;86;21056;-70
2023/11/23 07:07:32;;;;;;;11.70;5.20;;;;;;;-3.34;71.31;100553.11;1639956;86;21074;-69
2023/11/23 07:10:02;;;;;;;15.32;6.28;;;;;;;-3.32;71.31;100545.83;1640205;87;21071;-68
2023/11/23 07:12:31;;;;;;;14.63;6.05;;;;;;;-3.30;71.25;100539.40;1639971;86;21480;-70
2023/11/23 07:15:00;;;;;;;11.15;5.03;;;;;;;-3.28;71.26;100532.59;1640166;86;21072;-71
2023/11/23 07:17:30;;;;;;;15.25;5.80;;;;;;;-3.26;71.19;100533.34;1639947;86;21064;-69
2023/11/23 07:19:59;;;;;;;16.97;5.45;;;;;;;-3.24;71.16;100515.37;1639913;87;21068;-69
2023/11/23 07:22:27;;;;;;;16.15;5.37;;;;;;;-3.21;71.09;100493.73;1639924;86;21496;-69
2023/11/23 07:24:56;;;;;;;18.05;6.58;;;;;;;-3.22;70.85;100490.19;1663446;86;21093;-69
2023/11/23 07:27:29;;;;;;;13.65;5.25;;;;;;;-3.20;70.85;100479.37;1620178;87;21060;-69
2023/11/23 07:29:58;;;;;;;17.40;6.33;;;;;;;-3.16;70.79;100470.14;1619842;87;21528;-69
2023/11/23 07:32:27;;;;;;;13.40;5.62;;;;;;;-3.11;70.70;100471.16;1639878;87;21076;-70
2023/11/23 07:34:56;;;;;;;16.15;5.97;;;;;;;-3.09;70.58;100449.98;1639926;87;21107;-69
2023/11/23 07:37:24;;;;;;;10.35;5.10;;;;;;;-3.03;70.62;100431.27;1641494;87;21484;-68
2023/11/23 07:39:53;;;;;;;11.60;5.30;;;;;;;-3.01;70.26;100436.89;1640164;87;21060;-69
2023/11/23 07:42:23;;;;;;;18.48;5.67;;;;;;;-3.03;70.09;100425.91;1640214;87;21099;-69
2023/11/23 07:44:52;;;;;;;14.58;6.20;;;;;;;-3.01;70.13;100414.11;1640134;87;21084;-70
2023/11/23 07:47:23;;;;;;;16.57;6.87;;;;;;;-2.99;70.09;100408.64;1639933;87;21059;-70
2023/11/23 07:49:52;;;;;;;19.30;7.78;;;;;;;-3.02;69.90;100409.72;1640116;87;21088;-69
2023/11/23 07:52:22;;;;;;;17.02;7.17;;;;;;;-3.03;69.86;100397.28;1640127;87;21119;-70
2023/11/23 07:54:50;;;;;;;13.20;6.00;;;;;;;-3.05;69.75;100389.84;1640262;86;21064;-69
2023/11/23 07:57:19;;;;;;;13.22;5.75;;;;;;;-3.05;69.85;100387.16;1640162;86;21072;-68
2023/11/23 07:59:48;;;;;;;18.45;7.83;;;;;;;-3.05;69.77;100384.48;1640012;86;21048;-69
2023/11/23 08:02:17;;;;;;;14.73;5.78;;;;;;;-3.02;69.90;100368.66;1640147;86;21077;-70
2023/11/23 08:04:46;;;;;;;17.87;6.65;;;;;;;-2.98;69.76;100370.14;1656011;86;21524;-69
2023/11/23 08:07:15;;;;;;;11.10;6.10;;;;;;;-2.95;69.71;100370.78;1640149;87;21056;-69
2023/11/23 08:09:43;;;;;;;15.08;6.90;;;;;;;-2.92;69.63;100359.83;1612837;87;21072;-70
2023/11/23 08:12:13;;;;;;;10.80;4.97;;;;;;;-2.92;69.47;100348.25;1640077;86;21545;-70
2023/11/23 08:14:41;;;;;;;23.70;8.03;;;;;;;-2.92;69.41;100354.47;1640056;86;21127;-70
2023/11/23 08:17:11;;;;;;;10.58;5.37;;;;;;;-2.91;69.40;100369.58;1640023;87;21128;-69
2023/11/23 08:19:40;;;;;;;17.02;6.17;;;;;;;-2.90;69.24;100350.33;1640109;87;21440;-70
2023/11/23 08:22:12;;;;;;;17.55;6.37;;;;;;;-2.94;69.39;100353.72;1634175;86;21122;-69
2023/11/23 08:24:40;;;;;;;11.73;4.65;;;;;;;-2.94;69.16;100350.19;1640064;87;21085;-70
2023/11/23 08:27:08;;;;;;;10.40;5.25;;;;;;;-2.90;69.35;100341.81;1634259;86;21092;-70
2023/11/23 08:29:38;;;;;;;15.80;5.78;;;;;;;-2.85;69.08;100336.59;1639949;87;21128;-69
2023/11/23 08:32:12;;;;;;;12.47;6.00;;;;;;;-2.84;69.11;100338.30;1640092;87;21107;-68
2023/11/23 08:34:40;;;;;;;14.13;6.50;;;;;;;-2.82;69.13;100325.64;1640197;87;21048;-70
2023/11/23 08:37:13;;;;;;;20.72;8.48;;;;;;;-2.83;69.11;100327.47;1640112;86;21121;-69
2023/11/23 08:39:53;;;;;;;17.02;8.08;;;;;;;-2.77;69.28;100324.81;1662896;84;21056;-69
2023/11/23 08:42:25;;;;;;;17.62;8.58;;;;;;;-2.70;69.23;100328.74;1639920;86;21136;-70
2023/11/23 08:44:57;;;;;;;22.22;12.68;;;;;;;-2.67;69.19;100322.66;1619808;87;21044;-69
2023/11/23 08:47:26;;;;;;;15.60;9.68;;;;;;;-2.63;69.16;100316.58;1639965;87;21129;-69
2023/11/23 08:49:58;;;;;;;13.05;7.40;;;;;;;-2.63;68.95;100301.34;1640067;86;21096;-69
2023/11/23 08:52:27;;;;;;;14.73;5.55;;;;;;;-2.61;68.86;100289.16;1640045;87;21088;-70
2023/11/23 08:54:59;;;;;;;12.07;5.28;;;;;;;-2.60;68.65;100285.54;1662593;84;21043;-71
2023/11/23 08:57:30;;;;;;;11.50;5.22;;;;;;;-2.60;68.54;100270.30;1651456;85;21045;-70
2023/11/23 09:00:01;;;;;;;12.80;5.70;;;;;;;-2.54;68.50;100266.78;1638568;87;21097;-71
2023/11/23 09:02:32;;;;;;;11.38;5.50;;;;;;;-2.45;70.45;100265.59;1639785;86;21729;-73
2023/11/23 09:05:00;;;;;;;10.70;4.78;;;;;;;-2.31;69.82;100256.47;1614129;87;21529;-71
2023/11/23 09:07:30;;;;;;;16.45;5.85;;;;;;;-2.31;68.70;100243.91;1641191;87;21057;-70
2023/11/23 09:09:59;;;;;;;14.90;5.80;;;;;;;-2.31;68.45;100249.28;1611152;87;21054;-71
2023/11/23 09:12:32;;;;;;;11.38;5.80;;;;;;;-2.28;68.48;100239.65;1646974;86;21022;-74
2023/11/23 09:15:00;;;;;;;9.60;4.85;;;;;;;-2.25;68.12;100217.94;1666083;85;21591;-72
2023/11/23 09:17:30;;;;;;;8.83;4.97;;;;;;;-2.27;67.65;100209.16;1664906;85;21506;-76
2023/11/23 09:20:04;;;;;;;17.67;5.25;;;;;;;-2.29;67.45;100210.25;1639967;87;21085;-71
2023/11/23 09:22:37;;;;;;;15.85;5.37;;;;;;;-2.31;67.41;100201.47;1639963;87;21113;-71
2023/11/23 09:25:09;;;;;;;15.55;6.47;;;;;;;-2.34;67.44;100190.49;1640131;86;21062;-71
2023/11/23 09:27:43;;;;;;;15.25;6.17;;;;;;;-2.34;67.61;100185.13;1640897;86;21086;-71
2023/11/23 09:30:13;;;;;;;26.82;9.08;;;;;;;-2.33;67.59;100188.17;1639091;87;21077;-72
2023/11/23 09:32:43;;;;;;;9.10;4.72;;;;;;;-2.33;67.47;100192.20;1638633;86;21085;-71
2023/11/23 09:35:11;;;;;;;8.80;4.53;;;;;;;-2.36;67.07;100189.76;1638549;86;21117;-74
2023/11/23 09:37:40;;;;;;;10.35;4.80;;;;;;;-2.39;67.16;100192.68;1638446;86;21117;-71
2023/11/23 09:40:11;;;;;;;12.13;4.37;;;;;;;-2.38;67.14;100184.14;1637042;86;21117;-71
2023/11/23 09:42:40;;;;;;;11.43;5.50;;;;;;;-2.41;67.01;100163.78;1636643;88;21173;-71
2023/11/23 09:45:12;;;;;;;9.20;4.72;;;;;;;-2.46;67.07;100140.48;1636885;88;21061;-71
2023/11/23 09:47:41;;;;;;;11.05;5.25;;;;;;;-2.46;67.14;100112.32;1617091;88;21073;-69
2023/11/23 09:50:09;;;;;;;8.30;4.47;;;;;;;-2.48;67.11;100103.55;1615853;86;21082;-71
2023/11/23 09:52:39;;;;;;;10.20;4.62;;;;;;;-2.48;66.90;100090.63;1636740;86;21053;-71
2023/11/23 09:55:08;;;;;;;9.83;4.95;;;;;;;-2.46;67.06;100086.84;1615507;88;21069;-72
2023/11/23 09:57:38;;;;;;;14.33;6.70;;;;;;;-2.43;66.85;100075.02;1636765;88;21501;-73
2023/11/23 10:00:09;;;;;;;10.13;5.55;;;;;;;-2.42;66.85;100061.97;1636747;86;21529;-73
2023/11/23 10:02:38;;;;;;;11.95;5.75;;;;;;;-2.38;67.06;100035.26;1636815;86;21065;-72
2023/11/23 10:05:09;;;;;;;12.73;4.87;;;;;;;-2.35;67.24;100029.16;1658092;86;21564;-72
2023/11/23 10:07:37;;;;;;;7.50;4.47;;;;;;;-2.31;66.96;100019.02;1661322;85;21064;-72
2023/11/23 10:10:08;;;;;;;10.55;4.78;;;;;;;-2.31;66.78;99989.02;1661372;86;21109;-72
2023/11/23 10:12:37;;;;;;;11.10;5.17;;;;;;;-2.30;66.42;99978.66;1661507;86;21091;-72
2023/11/23 10:15:08;;;;;;;13.72;5.90;;;;;;;-2.34;66.36;100001.34;1642256;85;21516;-71
2023/11/23 10:17:39;;;;;;;14.38;5.20;;;;;;;-2.37;66.58;100004.28;1661349;85;21095;-72
2023/11/23 10:20:10;;;;;;;10.90;5.85;;;;;;;-2.35;66.80;100013.55;1661172;85;21492;-73
2023/11/23 10:22:47;;;;;;;9.35;5.12;;;;;;;-2.33;67.01;100016.95;1661354;85;21131;-70
2023/11/23 10:25:31;;;;;;;14.38;5.50;;;;;;;-2.35;66.45;99986.72;1661176;86;21052;-72
2023/11/23 10:28:00;;;;;;;11.70;7.05;;;;;;;-2.42;66.58;99980.16;1628226;85;21489;-71
2023/11/23 10:30:30;;;;;;;14.75;6.37;;;;;;;-2.45;66.76;99946.88;1661194;86;21100;-73
2023/11/23 10:33:00;;;;;;;9.55;5.58;;;;;;;-2.48;66.83;99941.77;1661116;85;21504;-73
2023/11/23 10:35:42;;;;;;;10.18;5.58;;;;;;;-2.51;66.85;99942.86;1581410;89;21209;-74
2023/11/23 10:38:10;;;;;;;12.25;5.83;;;;;;;-2.56;67.10;99924.47;1660229;86;21068;-71
2023/11/23 10:40:39;;;;;;;11.20;6.00;;;;;;;-2.62;67.17;99911.53;1654136;86;21070;-72
2023/11/23 10:43:09;;;;;;;11.53;5.37;;;;;;;-2.64;67.32;99903.25;1653343;86;21502;-71
2023/11/23 10:45:38;;;;;;;15.50;6.90;;;;;;;-2.65;67.38;99880.09;1653456;86;21031;-71
2023/11/23 10:48:08;;;;;;;11.90;4.90;;;;;;;-2.67;67.42;99875.34;1653584;87;21575;-70
2023/11/23 10:50:36;;;;;;;13.90;5.95;;;;;;;-2.68;67.37;99864.27;1653439;87;21059;-71
2023/11/23 10:53:05;;;;;;;7.70;5.25;;;;;;;-2.66;67.37;99865.84;1653495;87;21201;-71
2023/11/23 10:55:34;;;;;;;7.95;5.25;;;;;;;-2.68;67.02;99868.28;1653623;85;21055;-72
2023/11/23 10:58:13;;;;;;;11.08;5.42;;;;;;;-2.70;67.01;99858.17;1653486;85;21162;-71
2023/11/23 11:00:46;;;;;;;8.88;4.28;;;;;;;-2.70;67.32;99843.44;1653446;87;21123;-71
2023/11/23 11:03:15;;;;;;;10.28;4.03;;;;;;;-2.66;67.36;99850.24;1656665;85;21106;-72
2023/11/23 11:05:47;;;;;;;13.62;4.42;;;;;;;-2.66;67.19;99856.45;1636046;88;21252;-71
2023/11/23 11:08:20;;;;;;;8.35;4.12;;;;;;;-2.64;67.30;99850.97;1639232;87;21501;-70
2023/11/23 11:10:53;;;;;;;11.80;4.22;;;;;;;-2.62;68.57;99838.28;1636246;88;21117;-69
2023/11/23 11:13:23;;;;;;;10.65;4.30;;;;;;;-2.54;68.37;99822.92;1636101;88;21105;-71
2023/11/23 11:16:03;;;;;;;13.93;4.58;;;;;;;-2.53;68.79;99805.86;1636292;86;21167;-71
2023/11/23 11:18:35;;;;;;;11.12;5.22;;;;;;;-2.49;68.38;99784.02;1636112;88;21073;-71
2023/11/23 11:21:09;;;;;;;9.75;4.80;;;;;;;-2.52;68.03;99764.16;1635938;88;21089;-70
2023/11/23 11:23:44;;;;;;;10.45;4.87;;;;;;;-2.59;67.93;99754.93;1636258;88;21041;-71
2023/11/23 11:26:27;;;;;;;7.40;4.35;;;;;;;-2.67;68.05;99752.02;1636352;88;21116;-71
2023/11/23 11:29:05;;;;;;;11.48;5.33;;;;;;;-2.70;68.45;99752.28;1636748;88;21050;-72
2023/11/23 11:31:40;;;;;;;10.40;5.65;;;;;;;-2.73;68.78;99741.81;1619038;88;21034;-71
2023/11/23 11:34:20;;;;;;;12.10;5.20;;;;;;;-2.74;69.27;99750.83;1637404;87;21047;-72